createdAt,value
2016-07-29T00:00:18.890Z,18.49
2016-07-29T00:01:16.608Z,18.43
2016-07-29T00:02:22.811Z,18.40
2016-07-29T00:03:22.601Z,18.43
2016-07-29T00:04:18.998Z,18.45
2016-07-29T00:06:18.154Z,18.44
2016-07-29T00:07:29.822Z,18.44
2016-07-29T00:08:29.834Z,18.41
2016-07-29T00:09:28.033Z,18.40
2016-07-29T00:10:22.984Z,18.51
2016-07-29T00:11:20.208Z,18.42
2016-07-29T00:12:21.270Z,18.41
2016-07-29T00:13:19.919Z,18.41
2016-07-29T00:14:23.876Z,18.41
2016-07-29T00:15:19.555Z,18.40
2016-07-29T00:16:20.847Z,18.41
2016-07-29T00:17:17.770Z,18.42
2016-07-29T00:18:12.881Z,18.46
2016-07-29T00:20:22.059Z,18.46
2016-07-29T00:21:18.641Z,18.43
2016-07-29T00:22:19.683Z,18.48
2016-07-29T00:23:26.505Z,18.35
2016-07-29T00:25:17.703Z,18.37
2016-07-29T00:26:17.015Z,18.42
2016-07-29T00:27:23.664Z,18.45
2016-07-29T00:28:23.321Z,18.50
2016-07-29T00:30:20.778Z,18.29
2016-07-29T00:31:13.487Z,18.37
2016-07-29T00:32:18.620Z,18.30
2016-07-29T00:33:13.665Z,18.37
2016-07-29T00:35:18.815Z,18.43
2016-07-29T00:36:15.027Z,18.47
2016-07-29T00:37:12.560Z,18.48
2016-07-29T00:38:20.713Z,18.37
2016-07-29T00:39:20.736Z,18.30
2016-07-29T00:40:17.843Z,18.34
2016-07-29T00:41:18.720Z,18.37
2016-07-29T00:42:15.971Z,18.38
2016-07-29T00:43:20.399Z,18.33
2016-07-29T00:44:21.934Z,18.36
2016-07-29T00:45:21.182Z,18.42
2016-07-29T00:46:21.160Z,18.45
2016-07-29T00:47:23.255Z,18.43
2016-07-29T00:48:21.766Z,18.42
2016-07-29T00:49:20.242Z,18.40
2016-07-29T00:50:16.359Z,18.42
2016-07-29T00:51:22.903Z,18.37
2016-07-29T00:52:23.394Z,18.33
2016-07-29T00:53:29.945Z,18.35
2016-07-29T00:54:22.235Z,18.37
2016-07-29T00:55:22.777Z,18.32
2016-07-29T00:56:32.915Z,18.32
2016-07-29T00:57:21.671Z,18.31
2016-07-29T00:58:23.181Z,18.28
2016-07-29T00:59:22.191Z,18.27
2016-07-29T01:00:22.835Z,18.29
2016-07-29T01:01:30.016Z,18.24
2016-07-29T01:02:29.916Z,18.26
2016-07-29T01:03:18.630Z,18.29
2016-07-29T01:04:14.585Z,18.33
2016-07-29T01:05:20.396Z,18.34
2016-07-29T01:06:21.464Z,18.36
2016-07-29T01:07:15.385Z,18.33
2016-07-29T01:08:27.755Z,18.36
2016-07-29T01:09:17.374Z,18.38
2016-07-29T01:10:20.205Z,18.36
2016-07-29T01:11:15.167Z,18.37
2016-07-29T01:12:18.638Z,18.38
2016-07-29T01:14:13.744Z,18.42
2016-07-29T01:15:16.795Z,18.43
2016-07-29T01:16:21.987Z,18.47
2016-07-29T01:17:17.002Z,18.49
2016-07-29T01:18:21.088Z,18.44
2016-07-29T01:19:27.695Z,18.43
2016-07-29T01:20:32.228Z,18.41
2016-07-29T01:21:22.716Z,18.39
2016-07-29T01:22:16.501Z,18.41
2016-07-29T01:24:29.716Z,18.46
2016-07-29T01:25:23.967Z,18.42
2016-07-29T01:26:20.014Z,18.42
2016-07-29T01:27:17.691Z,18.43
2016-07-29T01:28:11.659Z,18.46
2016-07-29T01:29:22.998Z,18.47
2016-07-29T01:30:16.118Z,18.47
2016-07-29T01:33:31.761Z,18.37
2016-07-29T01:34:17.852Z,18.43
2016-07-29T01:35:14.247Z,18.44
2016-07-29T01:36:13.385Z,18.43
2016-07-29T01:37:23.091Z,18.40
2016-07-29T01:38:13.141Z,18.40
2016-07-29T01:39:23.404Z,18.48
2016-07-29T01:40:26.860Z,18.51
2016-07-29T01:42:19.466Z,18.55
2016-07-29T01:43:22.735Z,18.46
2016-07-29T01:44:18.075Z,18.37
2016-07-29T01:45:15.156Z,18.36
2016-07-29T01:46:17.567Z,18.36
2016-07-29T01:48:30.026Z,18.43
2016-07-29T01:49:34.761Z,18.38
2016-07-29T01:50:27.092Z,18.40
2016-07-29T01:51:19.547Z,18.34
2016-07-29T01:52:18.120Z,18.32
2016-07-29T01:53:13.864Z,18.22
2016-07-29T01:54:16.802Z,18.32
2016-07-29T01:55:20.594Z,18.24
2016-07-29T01:56:16.516Z,18.23
2016-07-29T01:58:22.798Z,18.36
2016-07-29T01:59:23.143Z,18.34
2016-07-29T02:01:21.133Z,18.41
2016-07-29T02:06:13.950Z,18.33
2016-07-29T02:07:21.986Z,18.29
2016-07-29T02:08:11.834Z,18.31
2016-07-29T02:09:17.756Z,18.29
2016-07-29T02:10:16.119Z,18.27
2016-07-29T02:11:21.316Z,18.29
2016-07-29T02:12:22.590Z,18.24
2016-07-29T02:13:12.651Z,18.20
2016-07-29T02:14:12.681Z,18.26
2016-07-29T02:15:12.618Z,18.27
2016-07-29T02:16:19.050Z,18.22
2016-07-29T02:17:18.817Z,18.18
2016-07-29T02:18:14.249Z,18.18
2016-07-29T02:19:22.338Z,18.13
2016-07-29T02:20:26.465Z,18.07
2016-07-29T02:21:16.773Z,18.04
2016-07-29T02:22:15.966Z,18.12
2016-07-29T02:23:17.171Z,18.13
2016-07-29T02:24:18.389Z,18.14
2016-07-29T02:26:22.358Z,18.12
2016-07-29T02:27:17.969Z,18.11
2016-07-29T02:28:18.686Z,18.13
2016-07-29T02:29:17.787Z,18.12
2016-07-29T02:30:16.666Z,18.07
2016-07-29T02:31:22.273Z,18.04
2016-07-29T02:33:21.860Z,18.11
2016-07-29T02:35:23.060Z,18.04
2016-07-29T02:36:20.986Z,17.99
2016-07-29T02:39:22.637Z,17.88
2016-07-29T02:40:12.949Z,17.88
2016-07-29T02:41:21.035Z,17.86
2016-07-29T02:42:22.277Z,17.82
2016-07-29T02:44:17.085Z,17.78
2016-07-29T02:45:15.379Z,17.78
2016-07-29T02:46:14.080Z,17.76
2016-07-29T02:48:27.940Z,17.77
2016-07-29T02:49:21.054Z,17.72
2016-07-29T02:50:17.175Z,17.69
2016-07-29T02:51:22.134Z,17.71
2016-07-29T02:52:17.899Z,17.69
2016-07-29T02:53:28.515Z,17.74
2016-07-29T02:54:21.117Z,17.71
2016-07-29T02:55:17.810Z,17.70
2016-07-29T02:56:20.867Z,17.66
2016-07-29T02:57:12.818Z,17.68
2016-07-29T02:58:11.782Z,17.65
2016-07-29T02:59:21.855Z,17.64
2016-07-29T03:01:19.603Z,17.57
2016-07-29T03:02:21.817Z,17.62
2016-07-29T03:03:15.403Z,17.63
2016-07-29T03:04:18.429Z,17.60
2016-07-29T03:05:15.865Z,17.59
2016-07-29T03:06:17.547Z,17.57
2016-07-29T03:07:14.245Z,17.56
2016-07-29T03:08:12.917Z,17.53
2016-07-29T03:09:13.076Z,17.57
2016-07-29T03:10:20.297Z,17.57
2016-07-29T03:11:29.591Z,17.55
2016-07-29T03:12:20.703Z,17.53
2016-07-29T03:13:11.271Z,17.52
2016-07-29T03:14:16.812Z,17.48
2016-07-29T03:15:18.835Z,17.52
2016-07-29T03:16:18.228Z,17.56
2016-07-29T03:17:23.485Z,17.58
2016-07-29T03:18:12.834Z,17.57
2016-07-29T03:19:22.590Z,17.59
2016-07-29T03:20:18.230Z,17.62
2016-07-29T03:21:20.982Z,17.63
2016-07-29T03:22:17.664Z,17.65
2016-07-29T03:23:22.332Z,17.63
2016-07-29T03:24:12.825Z,17.62
2016-07-29T03:25:27.752Z,17.67
2016-07-29T03:26:18.525Z,17.71
2016-07-29T03:27:20.683Z,17.75
2016-07-29T03:28:17.644Z,17.75
2016-07-29T03:29:17.989Z,17.74
2016-07-29T03:30:30.363Z,17.80
2016-07-29T03:31:17.299Z,17.80
2016-07-29T03:33:16.162Z,17.82
2016-07-29T03:35:17.669Z,17.84
2016-07-29T03:36:17.506Z,17.83
2016-07-29T03:37:17.721Z,17.85
2016-07-29T03:38:20.575Z,17.89
2016-07-29T03:39:20.150Z,17.93
2016-07-29T03:41:19.069Z,17.91
2016-07-29T03:43:18.986Z,17.94
2016-07-29T03:44:21.061Z,17.91
2016-07-29T03:45:19.063Z,17.92
2016-07-29T03:46:16.019Z,17.90
2016-07-29T03:47:16.920Z,17.92
2016-07-29T03:48:17.214Z,17.90
2016-07-29T03:49:20.392Z,17.90
2016-07-29T03:50:19.020Z,17.91
2016-07-29T03:51:29.389Z,17.94
2016-07-29T03:52:22.376Z,17.99
2016-07-29T03:53:21.739Z,17.99
2016-07-29T03:55:18.302Z,17.96
2016-07-29T03:56:14.069Z,18.01
2016-07-29T03:57:20.885Z,17.94
2016-07-29T03:58:12.925Z,17.94
2016-07-29T03:59:22.417Z,17.95
2016-07-29T04:02:19.617Z,17.97
2016-07-29T04:03:21.893Z,17.95
2016-07-29T04:04:18.099Z,17.99
2016-07-29T04:05:21.581Z,17.97
2016-07-29T04:07:12.402Z,17.98
2016-07-29T04:08:13.601Z,18.00
2016-07-29T04:09:20.739Z,17.97
2016-07-29T04:10:19.188Z,17.99
2016-07-29T04:13:11.960Z,17.98
2016-07-29T04:16:17.222Z,18.05
2016-07-29T04:17:29.430Z,18.06
2016-07-29T04:18:12.063Z,18.05
2016-07-29T04:19:17.445Z,18.06
2016-07-29T04:23:13.676Z,18.05
2016-07-29T04:24:22.678Z,18.07
2016-07-29T04:25:32.260Z,18.09
2016-07-29T04:27:29.643Z,18.12
2016-07-29T04:28:20.768Z,18.14
2016-07-29T04:29:20.910Z,18.11
2016-07-29T04:30:20.784Z,18.09
2016-07-29T04:31:20.995Z,18.09
2016-07-29T04:32:28.273Z,18.11
2016-07-29T04:33:23.159Z,18.11
2016-07-29T04:34:19.230Z,18.07
2016-07-29T04:35:20.052Z,18.21
2016-07-29T04:36:13.244Z,18.23
2016-07-29T04:39:23.347Z,18.17
2016-07-29T04:43:12.277Z,18.33
2016-07-29T04:47:22.202Z,18.34
2016-07-29T04:48:22.772Z,18.33
2016-07-29T04:49:21.333Z,18.36
2016-07-29T04:50:20.456Z,18.33
2016-07-29T04:51:20.519Z,18.38
2016-07-29T04:53:17.992Z,18.39
2016-07-29T04:55:12.115Z,18.46
2016-07-29T04:56:12.085Z,18.50
2016-07-29T04:57:17.392Z,18.55
2016-07-29T04:58:12.436Z,18.57
2016-07-29T05:00:14.478Z,18.59
2016-07-29T05:01:11.661Z,18.61
2016-07-29T05:02:16.860Z,18.66
2016-07-29T05:03:23.429Z,18.74
2016-07-29T05:05:21.174Z,18.71
2016-07-29T05:06:16.111Z,18.70
2016-07-29T05:08:21.005Z,18.74
2016-07-29T05:10:16.545Z,18.81
2016-07-29T05:11:11.805Z,18.77
2016-07-29T05:12:20.350Z,18.80
2016-07-29T05:13:13.740Z,18.79
2016-07-29T05:14:17.901Z,18.82
2016-07-29T05:15:23.453Z,18.80
2016-07-29T05:16:12.305Z,18.82
2016-07-29T05:17:16.592Z,18.82
2016-07-29T05:19:14.057Z,18.85
2016-07-29T05:20:14.128Z,18.88
2016-07-29T05:21:16.546Z,18.89
2016-07-29T05:22:17.000Z,18.92
2016-07-29T05:23:17.171Z,18.92
2016-07-29T05:24:12.046Z,18.93
2016-07-29T05:25:17.374Z,18.94
2016-07-29T05:26:11.948Z,18.91
2016-07-29T05:27:11.722Z,18.92
2016-07-29T05:28:17.579Z,18.90
2016-07-29T05:29:17.003Z,18.95
2016-07-29T05:30:13.170Z,19.00
2016-07-29T05:31:11.987Z,19.01
2016-07-29T05:32:12.110Z,19.00
2016-07-29T05:34:12.245Z,18.95
2016-07-29T05:35:12.281Z,18.96
2016-07-29T05:36:12.660Z,18.98
2016-07-29T05:37:12.918Z,19.02
2016-07-29T05:38:19.913Z,19.02
2016-07-29T05:39:17.055Z,19.02
2016-07-29T05:40:14.022Z,19.04
2016-07-29T05:41:11.979Z,19.03
2016-07-29T05:42:12.487Z,19.01
2016-07-29T05:43:12.736Z,19.02
2016-07-29T05:44:20.952Z,19.06
2016-07-29T05:45:22.929Z,19.04
2016-07-29T05:46:27.979Z,19.06
2016-07-29T05:47:20.312Z,19.05
2016-07-29T05:49:12.719Z,18.95
2016-07-29T05:50:12.125Z,18.94
2016-07-29T05:51:21.150Z,18.98
2016-07-29T05:52:23.174Z,18.98
2016-07-29T05:53:22.866Z,18.98
2016-07-29T05:54:22.412Z,19.00
2016-07-29T05:55:12.706Z,19.03
2016-07-29T05:56:21.810Z,19.03
2016-07-29T05:57:21.897Z,19.03
2016-07-29T05:58:12.090Z,19.07
2016-07-29T05:59:21.146Z,19.12
2016-07-29T06:00:14.235Z,19.14
2016-07-29T06:01:20.122Z,19.14
2016-07-29T06:05:11.793Z,19.13
2016-07-29T06:07:14.609Z,19.16
2016-07-29T06:08:20.827Z,19.22
2016-07-29T06:11:19.008Z,19.26
2016-07-29T06:12:20.089Z,19.23
2016-07-29T06:13:12.936Z,19.28
2016-07-29T06:15:30.336Z,19.24
2016-07-29T06:16:18.830Z,19.25
2016-07-29T06:17:11.915Z,19.29
2016-07-29T06:18:22.018Z,19.32
2016-07-29T06:19:22.174Z,19.27
2016-07-29T06:20:18.576Z,19.21
2016-07-29T06:21:21.405Z,19.19
2016-07-29T06:22:16.897Z,19.23
2016-07-29T06:23:29.617Z,19.25
2016-07-29T06:24:13.350Z,19.32
2016-07-29T06:26:14.208Z,19.37
2016-07-29T06:28:12.675Z,19.36
2016-07-29T06:29:20.887Z,19.40
2016-07-29T06:30:12.062Z,19.42
2016-07-29T06:32:20.772Z,19.43
2016-07-29T06:33:14.976Z,19.47
2016-07-29T06:34:22.511Z,19.41
2016-07-29T06:35:14.301Z,19.42
2016-07-29T06:38:12.465Z,19.46
2016-07-29T06:39:28.306Z,19.46
2016-07-29T06:40:29.093Z,19.50
2016-07-29T06:41:12.005Z,19.51
2016-07-29T06:42:11.586Z,19.51
2016-07-29T06:44:20.945Z,19.53
2016-07-29T06:45:13.855Z,19.56
2016-07-29T06:46:12.535Z,19.61
2016-07-29T06:47:16.757Z,19.63
2016-07-29T06:50:14.377Z,19.70
2016-07-29T06:51:18.538Z,19.72
2016-07-29T06:52:23.042Z,19.74
2016-07-29T06:53:19.282Z,19.76
2016-07-29T06:55:22.955Z,19.77
2016-07-29T06:56:21.145Z,19.82
2016-07-29T06:57:13.821Z,19.85
2016-07-29T06:59:21.721Z,19.85
2016-07-29T07:00:11.781Z,19.83
2016-07-29T07:01:11.868Z,19.85
2016-07-29T07:02:14.014Z,19.89
2016-07-29T07:05:18.719Z,19.92
2016-07-29T07:07:20.714Z,19.93
2016-07-29T07:08:12.235Z,19.91
2016-07-29T07:10:23.314Z,19.91
2016-07-29T07:11:24.129Z,19.88
2016-07-29T07:13:12.252Z,20.01
2016-07-29T07:15:12.247Z,20.00
2016-07-29T07:16:11.833Z,19.94
2016-07-29T07:18:12.667Z,19.99
2016-07-29T07:19:20.971Z,20.03
2016-07-29T07:20:14.473Z,19.98
2016-07-29T07:21:12.190Z,19.97
2016-07-29T07:22:12.061Z,19.98
2016-07-29T07:23:22.695Z,19.99
2016-07-29T07:24:17.895Z,19.90
2016-07-29T07:25:12.193Z,19.90
2016-07-29T07:26:17.713Z,19.90
2016-07-29T07:27:17.880Z,19.92
2016-07-29T07:28:30.069Z,19.95
2016-07-29T07:29:22.152Z,20.01
2016-07-29T07:30:12.771Z,19.97
2016-07-29T07:31:16.236Z,20.01
2016-07-29T07:32:12.155Z,20.05
2016-07-29T07:34:14.511Z,20.04
2016-07-29T07:35:12.317Z,20.01
2016-07-29T07:36:17.660Z,20.04
2016-07-29T07:38:17.826Z,20.06
2016-07-29T07:39:35.842Z,20.06
2016-07-29T07:40:12.819Z,19.98
2016-07-29T07:41:20.903Z,20.05
2016-07-29T07:42:17.950Z,20.06
2016-07-29T07:43:12.873Z,20.09
2016-07-29T07:44:12.521Z,20.17
2016-07-29T07:45:28.304Z,20.15
2016-07-29T07:47:12.470Z,20.17
2016-07-29T07:48:16.924Z,20.11
2016-07-29T07:49:11.601Z,20.18
2016-07-29T07:50:12.505Z,20.21
2016-07-29T07:52:21.648Z,20.20
2016-07-29T07:53:22.694Z,20.27
2016-07-29T07:54:11.870Z,20.31
2016-07-29T07:55:19.281Z,20.32
2016-07-29T07:56:22.729Z,20.29
2016-07-29T07:57:27.046Z,20.35
2016-07-29T07:58:12.110Z,20.37
2016-07-29T07:59:18.607Z,20.24
2016-07-29T08:01:16.006Z,20.29
2016-07-29T08:03:30.250Z,20.30
2016-07-29T08:04:37.608Z,20.33
2016-07-29T08:05:14.519Z,20.33
2016-07-29T08:06:12.912Z,20.36
2016-07-29T08:07:13.071Z,20.36
2016-07-29T08:08:19.551Z,20.33
2016-07-29T08:09:12.326Z,20.31
2016-07-29T08:10:13.362Z,20.31
2016-07-29T08:11:14.305Z,20.38
2016-07-29T08:12:20.344Z,20.46
2016-07-29T08:13:20.969Z,20.52
2016-07-29T08:14:14.645Z,20.58
2016-07-29T08:15:16.747Z,20.51
2016-07-29T08:16:21.704Z,20.53
2016-07-29T08:18:13.917Z,20.68
2016-07-29T08:19:12.461Z,20.75
2016-07-29T08:20:33.588Z,20.84
2016-07-29T08:21:18.721Z,20.76
2016-07-29T08:23:17.894Z,20.71
2016-07-29T08:24:14.162Z,20.72
2016-07-29T08:25:18.983Z,20.73
2016-07-29T08:27:12.048Z,20.80
2016-07-29T08:28:11.826Z,20.91
2016-07-29T08:29:11.788Z,20.98
2016-07-29T08:30:21.969Z,21.05
2016-07-29T08:31:18.191Z,21.11
2016-07-29T08:32:11.666Z,21.10
2016-07-29T08:33:29.647Z,21.01
2016-07-29T08:34:19.358Z,20.94
2016-07-29T08:35:33.010Z,20.90
2016-07-29T08:36:30.191Z,20.86
2016-07-29T08:37:17.009Z,20.85
2016-07-29T08:38:17.241Z,20.87
2016-07-29T08:40:34.152Z,20.92
2016-07-29T08:41:18.210Z,20.81
2016-07-29T08:42:20.028Z,20.80
2016-07-29T08:44:18.466Z,20.76
2016-07-29T08:45:11.638Z,20.79
2016-07-29T08:59:18.998Z,20.58
2016-07-29T09:00:16.251Z,20.61
2016-07-29T09:01:17.929Z,20.65
2016-07-29T09:02:21.749Z,20.60
2016-07-29T09:03:16.466Z,20.51
2016-07-29T09:04:16.787Z,20.45
2016-07-29T09:05:17.663Z,20.55
2016-07-29T09:06:17.433Z,20.57
2016-07-29T09:07:31.705Z,20.58
2016-07-29T09:08:19.033Z,20.66
2016-07-29T09:09:22.436Z,20.61
2016-07-29T09:10:17.259Z,20.69
2016-07-29T09:11:14.393Z,20.80
2016-07-29T09:12:22.574Z,20.82
2016-07-29T09:14:17.420Z,20.92
2016-07-29T09:15:22.197Z,20.97
2016-07-29T09:16:27.975Z,21.11
2016-07-29T09:17:21.149Z,21.17
2016-07-29T09:18:22.307Z,21.21
2016-07-29T09:19:17.548Z,21.34
2016-07-29T09:20:17.555Z,21.43
2016-07-29T09:21:23.476Z,21.40
2016-07-29T09:22:11.555Z,21.35
2016-07-29T09:24:17.664Z,21.24
2016-07-29T09:25:30.019Z,21.20
2016-07-29T09:26:22.968Z,21.23
2016-07-29T09:27:22.707Z,21.02
2016-07-29T09:29:24.404Z,21.12
2016-07-29T09:30:23.286Z,21.20
2016-07-29T09:31:21.339Z,21.23
2016-07-29T09:32:13.787Z,21.28
2016-07-29T09:33:27.624Z,21.21
2016-07-29T09:34:21.306Z,21.20
2016-07-29T09:36:29.395Z,21.24
2016-07-29T09:37:23.519Z,21.21
2016-07-29T09:38:13.428Z,21.17
2016-07-29T09:39:12.577Z,21.22
2016-07-29T09:40:17.734Z,21.19
2016-07-29T09:41:22.585Z,21.11
2016-07-29T09:42:20.649Z,21.15
2016-07-29T09:43:20.214Z,21.16
2016-07-29T09:44:17.365Z,21.25
2016-07-29T09:45:22.464Z,21.27
2016-07-29T09:46:18.610Z,21.27
2016-07-29T09:47:28.458Z,21.23
2016-07-29T09:48:28.467Z,21.24
2016-07-29T09:49:23.356Z,21.12
2016-07-29T09:51:23.726Z,21.16
2016-07-29T09:52:29.575Z,21.23
2016-07-29T09:53:21.409Z,21.26
2016-07-29T09:54:20.433Z,21.24
2016-07-29T09:55:16.762Z,21.17
2016-07-29T09:56:22.108Z,21.21
2016-07-29T09:57:16.592Z,21.20
2016-07-29T09:58:22.854Z,21.24
2016-07-29T09:59:23.134Z,21.23
2016-07-29T10:00:22.827Z,21.19
2016-07-29T10:01:28.522Z,21.19
2016-07-29T10:02:20.860Z,21.24
2016-07-29T10:03:12.983Z,21.26
2016-07-29T10:04:19.030Z,21.22
2016-07-29T10:05:20.235Z,21.13
2016-07-29T10:06:16.948Z,21.14
2016-07-29T10:07:12.332Z,21.21
2016-07-29T10:08:29.785Z,21.18
2016-07-29T10:09:21.023Z,21.23
2016-07-29T10:10:11.915Z,21.17
2016-07-29T10:11:28.356Z,21.25
2016-07-29T10:12:23.446Z,21.39
2016-07-29T10:13:26.586Z,21.33
2016-07-29T10:14:11.788Z,21.40
2016-07-29T10:15:13.635Z,21.28
2016-07-29T10:17:17.204Z,21.40
2016-07-29T10:18:12.761Z,21.31
2016-07-29T10:21:18.684Z,21.42
2016-07-29T10:22:17.824Z,21.37
2016-07-29T10:23:14.046Z,21.46
2016-07-29T10:24:18.284Z,21.56
2016-07-29T10:25:22.872Z,21.56
2016-07-29T10:28:12.375Z,21.89
2016-07-29T10:29:22.554Z,21.83
2016-07-29T10:30:22.671Z,21.88
2016-07-29T10:32:17.074Z,22.04
2016-07-29T10:33:11.905Z,22.04
2016-07-29T10:35:22.372Z,21.85
2016-07-29T10:37:12.380Z,21.85
2016-07-29T10:38:20.344Z,21.85
2016-07-29T10:39:15.653Z,21.93
2016-07-29T10:40:17.764Z,21.97
2016-07-29T10:41:18.848Z,22.00
2016-07-29T10:42:16.873Z,21.88
2016-07-29T10:43:11.836Z,21.92
2016-07-29T10:45:18.250Z,21.86
2016-07-29T10:46:33.114Z,21.84
2016-07-29T10:47:12.263Z,21.86
2016-07-29T10:48:20.951Z,21.95
2016-07-29T10:49:12.340Z,22.03
2016-07-29T10:50:32.053Z,22.02
2016-07-29T10:51:11.821Z,22.10
2016-07-29T10:52:23.250Z,22.10
2016-07-29T10:53:17.404Z,22.26
2016-07-29T10:54:21.270Z,22.42
2016-07-29T10:55:22.742Z,22.51
2016-07-29T10:56:14.948Z,22.38
2016-07-29T10:57:17.475Z,22.34
2016-07-29T10:58:10.579Z,22.37
2016-07-29T11:00:29.699Z,22.38
2016-07-29T11:01:12.160Z,22.45
2016-07-29T11:02:29.627Z,22.39
2016-07-29T11:03:11.686Z,22.46
2016-07-29T11:04:29.626Z,22.43
2016-07-29T11:05:21.689Z,22.44
2016-07-29T11:06:20.797Z,22.48
2016-07-29T11:08:12.019Z,22.67
2016-07-29T11:09:18.754Z,22.60
2016-07-29T11:11:23.177Z,22.50
2016-07-29T11:13:12.712Z,22.44
2016-07-29T11:14:20.159Z,22.47
2016-07-29T11:17:21.001Z,22.41
2016-07-29T11:18:29.798Z,22.43
2016-07-29T11:19:12.885Z,22.50
2016-07-29T11:20:17.094Z,22.51
2016-07-29T11:21:17.624Z,22.55
2016-07-29T11:22:20.319Z,22.49
2016-07-29T11:23:31.935Z,22.52
2016-07-29T11:24:20.549Z,22.59
2016-07-29T11:25:14.158Z,22.59
2016-07-29T11:26:11.952Z,22.53
2016-07-29T11:27:22.709Z,22.56
2016-07-29T11:28:17.786Z,22.57
2016-07-29T11:29:21.070Z,22.52
2016-07-29T11:30:30.309Z,22.53
2016-07-29T11:31:14.194Z,22.57
2016-07-29T11:32:30.159Z,22.45
2016-07-29T11:33:21.109Z,22.45
2016-07-29T11:34:18.141Z,22.46
2016-07-29T11:35:20.355Z,22.42
2016-07-29T11:36:28.197Z,22.37
2016-07-29T11:37:18.792Z,22.38
2016-07-29T11:38:14.091Z,22.47
2016-07-29T11:41:22.731Z,22.36
2016-07-29T11:42:16.124Z,22.33
2016-07-29T11:43:12.364Z,22.29
2016-07-29T11:44:20.465Z,22.28
2016-07-29T11:45:28.796Z,22.28
2016-07-29T11:46:20.597Z,22.34
2016-07-29T11:47:12.924Z,22.38
2016-07-29T11:48:19.083Z,22.41
2016-07-29T11:50:30.475Z,22.46
2016-07-29T11:51:12.368Z,22.50
2016-07-29T11:52:11.600Z,22.54
2016-07-29T11:53:13.492Z,22.52
2016-07-29T11:54:14.801Z,22.53
2016-07-29T11:55:12.028Z,22.60
2016-07-29T11:56:12.146Z,22.64
2016-07-29T11:57:21.061Z,22.68
2016-07-29T11:58:21.795Z,22.80
2016-07-29T11:59:22.147Z,22.87
2016-07-29T12:00:17.459Z,22.89
2016-07-29T12:01:27.317Z,22.92
2016-07-29T12:02:18.574Z,22.88
2016-07-29T12:03:17.550Z,22.88
2016-07-29T12:05:20.424Z,22.99
2016-07-29T12:06:12.143Z,22.98
2016-07-29T12:07:11.971Z,22.96
2016-07-29T12:08:23.320Z,22.94
2016-07-29T12:09:17.000Z,22.97
2016-07-29T12:11:21.193Z,22.94
2016-07-29T12:12:15.779Z,22.87
2016-07-29T12:13:34.837Z,22.75
2016-07-29T12:14:18.836Z,22.76
2016-07-29T12:16:11.872Z,22.82
2016-07-29T12:17:22.023Z,22.91
2016-07-29T12:18:29.098Z,22.88
2016-07-29T12:19:12.040Z,22.89
2016-07-29T12:20:12.103Z,22.86
2016-07-29T12:21:14.782Z,22.91
2016-07-29T12:22:21.029Z,22.93
2016-07-29T12:23:19.858Z,23.02
2016-07-29T12:24:15.192Z,22.91
2016-07-29T12:25:13.403Z,22.98
2016-07-29T12:26:17.310Z,23.04
2016-07-29T12:28:22.967Z,23.05
2016-07-29T12:29:30.552Z,23.06
2016-07-29T12:30:21.992Z,23.05
2016-07-29T12:31:12.124Z,23.06
2016-07-29T12:32:16.837Z,23.11
2016-07-29T12:34:17.678Z,23.26
2016-07-29T12:35:23.479Z,23.31
2016-07-29T12:36:38.233Z,23.23
2016-07-29T12:38:15.780Z,23.28
2016-07-29T12:39:12.582Z,23.41
2016-07-29T12:40:17.384Z,23.61
2016-07-29T12:41:16.061Z,23.63
2016-07-29T12:43:18.254Z,23.86
2016-07-29T12:44:17.180Z,24.08
2016-07-29T12:45:12.630Z,24.22
2016-07-29T12:46:13.515Z,24.13
2016-07-29T12:47:13.902Z,24.29
2016-07-29T12:48:18.901Z,24.13
2016-07-29T12:50:22.610Z,24.17
2016-07-29T12:52:22.290Z,24.27
2016-07-29T12:53:23.220Z,24.21
2016-07-29T12:54:18.615Z,24.29
2016-07-29T12:55:16.928Z,24.36
2016-07-29T12:56:18.222Z,24.38
2016-07-29T12:57:18.332Z,24.44
2016-07-29T13:01:17.871Z,24.43
2016-07-29T13:03:18.677Z,24.40
2016-07-29T13:04:12.486Z,24.51
2016-07-29T13:05:19.173Z,24.59
2016-07-29T13:06:21.572Z,24.63
2016-07-29T13:07:11.773Z,24.67
2016-07-29T13:08:23.364Z,24.84
2016-07-29T13:09:17.642Z,24.97
2016-07-29T13:10:30.155Z,24.91
2016-07-29T13:11:24.605Z,24.83
2016-07-29T13:13:29.873Z,24.85
2016-07-29T13:14:27.474Z,24.80
2016-07-29T13:15:50.281Z,24.80
2016-07-29T13:16:22.183Z,24.95
2016-07-29T13:17:12.984Z,25.07
2016-07-29T13:19:17.359Z,25.21
2016-07-29T13:20:17.200Z,25.24
2016-07-29T13:21:16.294Z,25.10
2016-07-29T13:22:21.985Z,25.24
2016-07-29T13:23:12.482Z,25.33
2016-07-29T13:24:22.257Z,25.21
2016-07-29T13:26:19.872Z,25.38
2016-07-29T13:27:18.031Z,25.13
2016-07-29T13:28:12.436Z,25.01
2016-07-29T13:29:22.958Z,24.68
2016-07-29T13:30:12.222Z,24.68
2016-07-29T13:31:34.005Z,24.66
2016-07-29T13:32:29.317Z,24.53
2016-07-29T13:33:29.454Z,24.43
2016-07-29T13:34:29.620Z,24.35
2016-07-29T13:35:21.008Z,24.53
2016-07-29T13:36:17.733Z,24.73
2016-07-29T13:37:17.795Z,25.03
2016-07-29T13:38:13.006Z,25.28
2016-07-29T13:39:28.243Z,25.30
2016-07-29T13:40:31.043Z,25.13
2016-07-29T13:41:13.624Z,24.89
2016-07-29T13:42:18.010Z,24.90
2016-07-29T13:43:30.627Z,25.30
2016-07-29T13:44:19.999Z,25.63
2016-07-29T13:46:33.347Z,26.07
2016-07-29T13:47:18.792Z,26.23
2016-07-29T13:48:20.927Z,26.42
2016-07-29T13:49:12.403Z,26.50
2016-07-29T13:50:22.685Z,26.60
2016-07-29T13:51:13.017Z,26.55
2016-07-29T13:52:13.477Z,26.77
2016-07-29T13:53:12.971Z,26.81
2016-07-29T13:54:12.615Z,26.77
2016-07-29T13:55:29.814Z,26.86
2016-07-29T13:56:12.467Z,26.75
2016-07-29T13:57:18.185Z,26.77
2016-07-29T13:58:21.339Z,27.09
2016-07-29T14:00:20.707Z,27.22
2016-07-29T14:01:12.974Z,27.28
2016-07-29T14:02:12.204Z,27.50
2016-07-29T14:03:34.005Z,27.42
2016-07-29T14:04:28.560Z,27.64
2016-07-29T14:05:12.155Z,27.57
2016-07-29T14:07:31.998Z,27.96
2016-07-29T14:08:22.061Z,27.93
2016-07-29T14:09:14.141Z,27.77
2016-07-29T14:11:12.019Z,27.90
2016-07-29T14:12:11.546Z,28.22
2016-07-29T14:13:12.571Z,28.31
2016-07-29T14:14:12.336Z,27.92
2016-07-29T14:15:31.841Z,27.73
2016-07-29T14:16:27.381Z,27.61
2016-07-29T14:17:11.568Z,27.24
2016-07-29T14:18:18.475Z,26.98
2016-07-29T14:19:13.996Z,26.98
2016-07-29T14:20:12.761Z,27.13
2016-07-29T14:21:16.770Z,27.18
2016-07-29T14:22:14.431Z,27.12
2016-07-29T14:23:23.062Z,27.22
2016-07-29T14:24:17.884Z,27.21
2016-07-29T14:25:14.052Z,27.18
2016-07-29T14:26:10.637Z,26.99
2016-07-29T14:27:17.331Z,26.65
2016-07-29T14:31:12.710Z,26.16
2016-07-29T14:32:17.674Z,26.22
2016-07-29T14:33:18.881Z,26.17
2016-07-29T14:34:30.873Z,26.17
2016-07-29T14:36:14.344Z,26.14
2016-07-29T14:38:27.191Z,26.04
2016-07-29T14:39:22.834Z,25.81
2016-07-29T14:40:11.653Z,25.75
2016-07-29T14:41:17.676Z,25.74
2016-07-29T14:43:26.569Z,25.80
2016-07-29T14:44:17.657Z,25.80
2016-07-29T14:45:23.080Z,25.78
2016-07-29T14:46:12.546Z,25.70
2016-07-29T14:48:11.639Z,25.68
2016-07-29T14:49:17.635Z,25.71
2016-07-29T14:51:17.311Z,25.67
2016-07-29T14:52:17.171Z,25.73
2016-07-29T14:53:11.590Z,25.84
2016-07-29T14:54:10.444Z,25.85
2016-07-29T14:55:12.150Z,25.87
2016-07-29T14:57:57.280Z,26.10
2016-07-29T14:58:18.322Z,26.13
2016-07-29T14:59:22.485Z,26.25
2016-07-29T15:01:22.156Z,26.62
2016-07-29T15:03:23.324Z,27.08
2016-07-29T15:04:16.595Z,27.24
2016-07-29T15:06:12.295Z,27.52
2016-07-29T15:07:11.570Z,27.64
2016-07-29T15:08:12.675Z,27.95
2016-07-29T15:09:17.226Z,28.12
2016-07-29T15:10:21.813Z,27.67
2016-07-29T15:11:15.601Z,27.80
2016-07-29T15:12:22.217Z,28.46
2016-07-29T15:14:16.895Z,28.97
2016-07-29T15:15:13.538Z,28.93
2016-07-29T15:16:22.088Z,28.90
2016-07-29T15:17:12.360Z,29.11
2016-07-29T15:18:12.996Z,29.28
2016-07-29T15:19:17.406Z,29.25
2016-07-29T15:20:13.143Z,29.46
2016-07-29T15:21:12.049Z,29.57
2016-07-29T15:22:12.360Z,29.47
2016-07-29T15:23:12.700Z,29.72
2016-07-29T15:24:16.881Z,29.84
2016-07-29T15:25:13.196Z,29.26
2016-07-29T15:26:14.876Z,29.80
2016-07-29T15:27:16.272Z,29.91
2016-07-29T15:28:14.303Z,29.66
2016-07-29T15:29:13.341Z,29.81
2016-07-29T15:30:12.117Z,30.28
2016-07-29T15:31:27.714Z,30.09
2016-07-29T15:32:13.161Z,30.24
2016-07-29T15:33:12.321Z,30.08
2016-07-29T15:34:17.518Z,30.19